createdAt,value
2023-01-27T00:54:39.576Z,23.49
2023-01-27T00:55:40.496Z,23.52
2023-01-27T00:56:40.457Z,23.49
2023-01-27T00:57:40.421Z,23.46
2023-01-27T00:58:40.370Z,23.51
2023-01-27T00:59:40.335Z,23.46
2023-01-27T01:00:40.291Z,23.45
2023-01-27T01:01:40.281Z,23.47
2023-01-27T01:02:40.309Z,23.47
2023-01-27T01:03:40.188Z,23.45
2023-01-27T01:04:40.158Z,23.41
2023-01-27T01:05:40.111Z,23.40
2023-01-27T01:06:40.062Z,23.44
2023-01-27T01:07:40.022Z,23.42
2023-01-27T01:08:39.982Z,23.37
2023-01-27T01:09:39.950Z,23.37
2023-01-27T01:10:39.929Z,23.42
2023-01-27T01:11:39.861Z,23.36
2023-01-27T01:12:39.808Z,23.36
2023-01-27T01:13:39.758Z,23.34
2023-01-27T01:14:39.725Z,23.32
2023-01-27T01:15:39.681Z,23.32
2023-01-27T01:16:39.660Z,23.34
2023-01-27T01:17:39.610Z,23.29
2023-01-27T01:18:39.581Z,23.32
2023-01-27T01:19:39.525Z,23.24
2023-01-27T01:20:39.471Z,23.26
2023-01-27T01:21:40.873Z,23.23
2023-01-27T01:22:39.524Z,23.24
2023-01-27T01:23:39.508Z,23.23
2023-01-27T01:24:39.457Z,23.25
2023-01-27T01:25:39.415Z,23.27
2023-01-27T01:26:39.414Z,23.21
2023-01-27T01:27:39.344Z,23.24
2023-01-27T01:28:39.301Z,23.23
2023-01-27T01:29:39.269Z,23.21
2023-01-27T01:30:39.273Z,23.21
2023-01-27T01:31:39.340Z,23.17
2023-01-27T01:32:39.166Z,23.17
2023-01-27T01:33:39.155Z,23.21
2023-01-27T01:34:39.114Z,23.20
2023-01-27T01:35:39.092Z,23.21
2023-01-27T01:36:39.043Z,23.19
2023-01-27T01:37:38.978Z,23.17
2023-01-27T01:38:38.940Z,23.17
2023-01-27T01:39:38.890Z,23.18
2023-01-27T01:40:38.852Z,23.14
2023-01-27T01:41:38.810Z,23.12
2023-01-27T01:42:38.792Z,23.16
2023-01-27T01:43:38.723Z,23.14
2023-01-27T01:44:38.734Z,23.14
2023-01-27T01:45:38.648Z,23.12
2023-01-27T01:46:38.675Z,23.14
2023-01-27T01:47:38.581Z,23.10
2023-01-27T01:48:38.526Z,23.15
2023-01-27T01:49:38.479Z,23.14
2023-01-27T01:50:38.441Z,23.12
2023-01-27T01:51:38.411Z,23.11
2023-01-27T01:52:38.389Z,23.12
2023-01-27T01:53:38.355Z,23.06
2023-01-27T01:54:38.318Z,23.09
2023-01-27T01:55:38.287Z,23.11
2023-01-27T01:56:38.249Z,23.09
2023-01-27T01:57:38.219Z,23.06
2023-01-27T01:58:38.201Z,23.02
2023-01-27T01:59:38.139Z,23.05
2023-01-27T02:00:38.106Z,23.02
2023-01-27T02:01:38.073Z,23.08
2023-01-27T02:02:38.087Z,23.08
2023-01-27T02:03:37.989Z,22.99
2023-01-27T02:04:37.930Z,22.98
2023-01-27T02:05:37.917Z,23.03
2023-01-27T02:06:37.852Z,23.02
2023-01-27T02:07:37.819Z,23.00
2023-01-27T02:08:37.786Z,22.96
2023-01-27T02:09:37.755Z,23.00
2023-01-27T02:10:38.439Z,23.02
2023-01-27T02:11:37.675Z,22.97
2023-01-27T02:12:37.632Z,23.00
2023-01-27T02:13:37.590Z,22.98
2023-01-27T02:14:37.587Z,22.99
2023-01-27T02:15:38.439Z,22.96
2023-01-27T02:16:37.515Z,22.91
2023-01-27T02:17:37.475Z,22.94
2023-01-27T02:18:37.447Z,22.94
2023-01-27T02:19:37.379Z,23.00
2023-01-27T02:20:37.336Z,22.96
2023-01-27T02:21:37.301Z,22.90
2023-01-27T02:22:37.256Z,22.94
2023-01-27T02:23:37.238Z,22.94
2023-01-27T02:24:37.190Z,22.91
2023-01-27T02:25:37.163Z,22.96
2023-01-27T02:26:37.100Z,22.99
2023-01-27T02:27:37.063Z,22.93
2023-01-27T02:28:37.033Z,22.91
2023-01-27T02:29:37.012Z,22.94
2023-01-27T02:30:37.086Z,22.94
2023-01-27T02:31:37.082Z,22.91
2023-01-27T02:32:38.681Z,22.90
2023-01-27T02:33:36.853Z,22.94
2023-01-27T02:34:36.827Z,22.93
2023-01-27T02:35:36.802Z,22.90
2023-01-27T02:36:36.777Z,22.90
2023-01-27T02:37:36.726Z,22.91
2023-01-27T02:38:36.697Z,22.90
2023-01-27T02:39:36.663Z,22.84
2023-01-27T02:40:36.666Z,22.90
2023-01-27T02:41:36.594Z,22.90
2023-01-27T02:42:36.559Z,22.88
2023-01-27T02:43:36.529Z,22.85
2023-01-27T02:44:36.488Z,22.88
2023-01-27T02:45:36.452Z,22.85
2023-01-27T02:46:36.450Z,22.84
2023-01-27T02:47:36.386Z,22.89
2023-01-27T02:48:36.346Z,22.84
2023-01-27T02:49:36.321Z,22.84
2023-01-27T02:50:36.288Z,22.86
2023-01-27T02:51:36.257Z,22.78
2023-01-27T02:52:36.215Z,22.81
2023-01-27T02:53:36.178Z,22.80
2023-01-27T02:54:36.139Z,22.79
2023-01-27T02:55:36.099Z,22.85
2023-01-27T02:56:36.068Z,22.82
2023-01-27T02:57:36.038Z,22.79
2023-01-27T02:58:36.010Z,22.81
2023-01-27T02:59:35.962Z,22.75
2023-01-27T03:00:35.933Z,22.79
2023-01-27T03:01:35.966Z,22.76
2023-01-27T03:02:35.948Z,22.75
2023-01-27T03:03:35.800Z,22.81
2023-01-27T03:04:35.751Z,22.79
2023-01-27T03:05:35.698Z,22.76
2023-01-27T03:06:35.646Z,22.77
2023-01-27T03:07:35.612Z,22.76
2023-01-27T03:08:35.609Z,22.78
2023-01-27T03:09:35.548Z,22.78
2023-01-27T03:10:35.508Z,22.75
2023-01-27T03:11:35.473Z,22.73
2023-01-27T03:12:35.427Z,22.75
2023-01-27T03:13:35.376Z,22.76
2023-01-27T03:14:35.334Z,22.75
2023-01-27T03:15:35.338Z,22.76
2023-01-27T03:16:35.242Z,22.72
2023-01-27T03:17:35.210Z,22.75
2023-01-27T03:18:35.210Z,22.72
2023-01-27T03:19:35.197Z,22.72
2023-01-27T03:20:35.130Z,22.69
2023-01-27T03:21:35.064Z,22.73
2023-01-27T03:22:35.033Z,22.71
2023-01-27T03:23:35.049Z,22.66
2023-01-27T03:24:34.964Z,22.71
2023-01-27T03:25:34.930Z,22.68
2023-01-27T03:26:34.891Z,22.66
2023-01-27T03:27:34.854Z,22.69
2023-01-27T03:28:34.813Z,22.69
2023-01-27T03:29:34.780Z,22.66
2023-01-27T03:30:34.722Z,22.71
2023-01-27T03:31:34.833Z,22.60
2023-01-27T03:32:34.641Z,22.65
2023-01-27T03:33:34.614Z,22.62
2023-01-27T03:34:34.580Z,22.63
2023-01-27T03:35:34.516Z,22.63
2023-01-27T03:36:34.471Z,22.63
2023-01-27T03:37:34.428Z,22.60
2023-01-27T03:38:34.399Z,22.59
2023-01-27T03:39:34.370Z,22.57
2023-01-27T03:40:34.342Z,22.56
2023-01-27T03:41:34.306Z,22.60
2023-01-27T03:42:34.267Z,22.57
2023-01-27T03:43:34.227Z,22.57
2023-01-27T03:44:34.196Z,22.57
2023-01-27T03:45:34.161Z,22.51
2023-01-27T03:46:34.112Z,22.50
2023-01-27T03:47:34.076Z,22.59
2023-01-27T03:48:34.079Z,22.53
2023-01-27T03:49:34.006Z,22.53
2023-01-27T03:50:33.995Z,22.57
2023-01-27T03:51:33.931Z,22.54
2023-01-27T03:52:33.910Z,22.54
2023-01-27T03:53:33.872Z,22.54
2023-01-27T03:54:33.852Z,22.48
2023-01-27T03:55:33.803Z,22.54
2023-01-27T03:56:33.767Z,22.51
2023-01-27T03:57:33.745Z,22.51
2023-01-27T03:58:33.704Z,22.48
2023-01-27T03:59:33.697Z,22.50
2023-01-27T04:00:33.608Z,22.50
2023-01-27T04:01:33.615Z,22.48
2023-01-27T04:02:33.617Z,22.48
2023-01-27T04:03:33.482Z,22.42
2023-01-27T04:04:33.469Z,22.42
2023-01-27T04:05:33.388Z,22.45
2023-01-27T04:06:33.374Z,22.48
2023-01-27T04:07:33.319Z,22.45
2023-01-27T04:08:33.275Z,22.44
2023-01-27T04:09:33.282Z,22.47
2023-01-27T04:10:33.218Z,22.44
2023-01-27T04:11:33.155Z,22.50
2023-01-27T04:12:33.121Z,22.44
2023-01-27T04:13:33.072Z,22.44
2023-01-27T04:14:33.048Z,22.43
2023-01-27T04:15:33.007Z,22.42
2023-01-27T04:16:32.956Z,22.44
2023-01-27T04:17:32.925Z,22.44
2023-01-27T04:18:32.884Z,22.38
2023-01-27T04:19:32.841Z,22.42
2023-01-27T04:20:32.809Z,22.41
2023-01-27T04:21:32.768Z,22.40
2023-01-27T04:22:32.745Z,22.39
2023-01-27T04:23:32.688Z,22.38
2023-01-27T04:24:32.654Z,22.41
2023-01-27T04:25:32.625Z,22.37
2023-01-27T04:26:32.584Z,22.36
2023-01-27T04:27:32.551Z,22.37
2023-01-27T04:28:43.752Z,22.38
2023-01-27T04:29:32.488Z,22.38
2023-01-27T04:30:32.445Z,22.38
2023-01-27T04:31:32.675Z,22.32
2023-01-27T04:32:32.374Z,22.32
2023-01-27T04:33:32.332Z,22.35
2023-01-27T04:34:32.274Z,22.29
2023-01-27T04:35:38.530Z,22.32
2023-01-27T04:36:32.201Z,22.34
2023-01-27T04:37:32.175Z,22.29
2023-01-27T04:38:32.171Z,22.31
2023-01-27T04:39:32.117Z,22.29
2023-01-27T04:40:32.091Z,22.27
2023-01-27T04:41:32.062Z,22.27
2023-01-27T04:42:32.051Z,22.29
2023-01-27T04:43:32.027Z,22.26
2023-01-27T04:44:32.011Z,22.26
2023-01-27T04:45:32.003Z,22.27
2023-01-27T04:46:31.938Z,22.26
2023-01-27T04:47:31.907Z,22.25
2023-01-27T04:48:31.862Z,22.25
2023-01-27T04:49:31.867Z,22.23
2023-01-27T04:50:31.780Z,22.28
2023-01-27T04:51:31.746Z,22.23
2023-01-27T04:52:31.711Z,22.24
2023-01-27T04:53:31.687Z,22.23
2023-01-27T04:54:31.680Z,22.26
2023-01-27T04:55:31.627Z,22.20
2023-01-27T04:56:31.618Z,22.18
2023-01-27T04:57:31.580Z,22.20
2023-01-27T04:58:31.524Z,22.23
2023-01-27T04:59:31.496Z,22.22
2023-01-27T05:00:31.448Z,22.18
2023-01-27T05:01:31.503Z,22.18
2023-01-27T05:02:31.383Z,22.20
2023-01-27T05:03:31.352Z,22.26
2023-01-27T05:04:31.323Z,22.22
2023-01-27T05:05:31.296Z,22.22
2023-01-27T05:06:31.289Z,22.17
2023-01-27T05:07:32.326Z,22.18
2023-01-27T05:08:31.206Z,22.17
2023-01-27T05:09:31.178Z,22.18
2023-01-27T05:10:31.159Z,22.18
2023-01-27T05:11:31.095Z,22.16
2023-01-27T05:12:31.068Z,22.20
2023-01-27T05:13:31.043Z,22.20
2023-01-27T05:14:31.009Z,22.17
2023-01-27T05:15:31.107Z,22.14
2023-01-27T05:16:31.014Z,22.17
2023-01-27T05:17:30.915Z,22.16
2023-01-27T05:18:30.883Z,22.17
2023-01-27T05:19:30.855Z,22.20
2023-01-27T05:20:30.830Z,22.16
2023-01-27T05:21:30.869Z,22.14
2023-01-27T05:22:30.768Z,22.10
2023-01-27T05:23:30.771Z,22.20
2023-01-27T05:24:30.784Z,22.13
2023-01-27T05:25:30.723Z,22.11
2023-01-27T05:26:30.682Z,22.11
2023-01-27T05:27:30.614Z,22.11
2023-01-27T05:28:30.611Z,22.13
2023-01-27T05:29:30.556Z,22.08
2023-01-27T05:30:30.526Z,22.14
2023-01-27T05:31:30.634Z,22.08
2023-01-27T05:32:30.552Z,22.14
2023-01-27T05:33:30.438Z,22.08
2023-01-27T05:34:30.401Z,22.14
2023-01-27T05:35:30.378Z,22.08
2023-01-27T05:36:30.388Z,22.08
2023-01-27T05:37:30.327Z,22.13
2023-01-27T05:38:30.288Z,22.08
2023-01-27T05:39:30.266Z,22.08
2023-01-27T05:40:30.237Z,22.07
2023-01-27T05:41:30.209Z,22.02
2023-01-27T05:42:30.213Z,22.11
2023-01-27T05:43:30.172Z,22.05
2023-01-27T05:44:30.133Z,22.02
2023-01-27T05:45:30.109Z,22.06
2023-01-27T05:46:30.226Z,22.04
2023-01-27T05:47:30.040Z,22.08
2023-01-27T05:48:30.023Z,22.10
2023-01-27T05:49:30.013Z,22.05
2023-01-27T05:50:29.958Z,22.07
2023-01-27T05:51:29.921Z,22.08
2023-01-27T05:52:29.886Z,22.02
2023-01-27T05:53:29.855Z,22.05
2023-01-27T05:54:29.835Z,21.99
2023-01-27T05:55:29.774Z,22.01
2023-01-27T05:56:29.755Z,22.01
2023-01-27T05:57:29.698Z,22.02
2023-01-27T05:58:30.052Z,22.04
2023-01-27T05:59:29.655Z,21.96
2023-01-27T06:00:29.605Z,22.03
2023-01-27T06:01:29.730Z,22.01
2023-01-27T06:02:29.581Z,22.02
2023-01-27T06:03:29.507Z,22.07
2023-01-27T06:04:29.475Z,22.02
2023-01-27T06:05:29.450Z,22.05
2023-01-27T06:06:29.438Z,22.04
2023-01-27T06:07:29.387Z,22.02
2023-01-27T06:08:29.359Z,22.04
2023-01-27T06:09:29.329Z,22.07
2023-01-27T06:10:29.295Z,22.01
2023-01-27T06:11:29.259Z,22.05
2023-01-27T06:12:29.216Z,22.02
2023-01-27T06:13:29.212Z,21.99
2023-01-27T06:14:29.168Z,22.04
2023-01-27T06:15:29.110Z,21.97
2023-01-27T06:16:29.138Z,21.96
2023-01-27T06:17:29.046Z,21.99
2023-01-27T06:18:29.021Z,21.96
2023-01-27T06:19:29.000Z,21.95
2023-01-27T06:20:28.968Z,22.04
2023-01-27T06:21:29.064Z,22.01
2023-01-27T06:22:28.903Z,22.02
2023-01-27T06:23:28.896Z,22.00
2023-01-27T06:24:28.942Z,22.00
2023-01-27T06:25:28.805Z,22.00
2023-01-27T06:26:28.771Z,22.01
2023-01-27T06:27:29.038Z,22.01
2023-01-27T06:28:29.838Z,22.04
2023-01-27T06:29:28.681Z,22.01
2023-01-27T06:30:28.689Z,22.04
2023-01-27T06:31:28.734Z,22.06
2023-01-27T06:32:28.585Z,22.03
2023-01-27T06:33:29.042Z,22.07
2023-01-27T06:34:28.537Z,22.06
2023-01-27T06:35:28.503Z,22.10
2023-01-27T06:36:28.473Z,22.10
2023-01-27T06:37:28.431Z,22.15
2023-01-27T06:38:28.545Z,22.13
2023-01-27T06:39:28.343Z,22.18
2023-01-27T06:40:28.314Z,22.18
2023-01-27T06:41:28.308Z,22.22
2023-01-27T06:42:28.267Z,22.24
2023-01-27T06:43:28.563Z,22.24
2023-01-27T06:44:28.547Z,22.24
2023-01-27T06:45:28.178Z,22.25
2023-01-27T06:46:28.391Z,22.32
2023-01-27T06:47:28.116Z,22.30
2023-01-27T06:48:28.092Z,22.28
2023-01-27T06:49:28.551Z,22.15
2023-01-27T06:50:28.018Z,22.15
2023-01-27T06:51:28.017Z,22.22
2023-01-27T06:52:27.990Z,22.39
2023-01-27T06:53:28.627Z,22.57
2023-01-27T06:54:28.165Z,22.58
2023-01-27T06:55:27.860Z,22.64
2023-01-27T06:56:27.827Z,22.94
2023-01-27T06:57:27.816Z,22.94
2023-01-27T06:58:28.103Z,23.09
2023-01-27T06:59:27.725Z,23.42
2023-01-27T07:00:27.716Z,23.48
2023-01-27T07:01:30.947Z,23.77
2023-01-27T07:02:27.652Z,23.94
2023-01-27T07:03:27.590Z,24.05
2023-01-27T07:04:27.567Z,24.35
2023-01-27T07:05:27.492Z,24.54
2023-01-27T07:06:27.453Z,24.76
2023-01-27T07:07:27.400Z,24.82
2023-01-27T07:08:27.554Z,24.94
2023-01-27T07:09:27.310Z,25.19
2023-01-27T07:10:27.292Z,25.32
2023-01-27T07:11:27.247Z,25.33
2023-01-27T07:12:27.213Z,25.53
2023-01-27T07:13:27.568Z,25.75
2023-01-27T07:14:27.554Z,25.70
2023-01-27T07:15:28.053Z,25.82
2023-01-27T07:16:27.118Z,25.94
2023-01-27T07:17:27.057Z,26.09
2023-01-27T07:18:27.082Z,26.30
2023-01-27T07:19:26.960Z,26.29
2023-01-27T07:20:26.941Z,26.30
2023-01-27T07:21:26.855Z,26.42
2023-01-27T07:22:26.824Z,26.52
2023-01-27T07:23:26.765Z,26.68
2023-01-27T07:24:27.203Z,26.60
2023-01-27T07:25:26.684Z,26.79
2023-01-27T07:26:26.628Z,26.77
2023-01-27T07:27:26.596Z,26.90
2023-01-27T07:28:26.542Z,26.96
2023-01-27T07:29:26.565Z,27.12
2023-01-27T07:30:26.581Z,27.21
2023-01-27T07:31:26.618Z,27.22
2023-01-27T07:32:28.125Z,27.44
2023-01-27T07:33:26.363Z,27.44
2023-01-27T07:34:26.565Z,27.43
2023-01-27T07:35:26.266Z,27.40
2023-01-27T07:36:26.209Z,27.61
2023-01-27T07:37:26.180Z,27.75
2023-01-27T07:38:26.105Z,27.80
2023-01-27T07:39:26.111Z,27.74
2023-01-27T07:40:26.009Z,27.74
2023-01-27T07:41:26.086Z,28.03
2023-01-27T07:42:26.127Z,28.04
2023-01-27T07:43:25.859Z,28.02
2023-01-27T07:44:25.803Z,28.04
2023-01-27T07:45:25.820Z,28.16
2023-01-27T07:46:25.716Z,28.12
2023-01-27T07:47:25.682Z,24.58
2023-01-27T07:48:25.671Z,25.55
2023-01-27T07:49:27.463Z,26.77
2023-01-27T07:50:28.899Z,26.99
2023-01-27T07:51:25.585Z,26.74
2023-01-27T07:52:28.683Z,26.79
2023-01-27T07:53:25.451Z,27.36
2023-01-27T07:54:25.441Z,27.42
2023-01-27T07:55:25.385Z,27.73
2023-01-27T07:56:25.592Z,27.91
2023-01-27T07:57:25.323Z,27.79
2023-01-27T07:58:25.315Z,27.34
2023-01-27T07:59:26.526Z,26.61
2023-01-27T08:00:25.220Z,25.26
2023-01-27T08:01:25.602Z,24.51
2023-01-27T08:02:25.122Z,25.46
2023-01-27T08:03:25.153Z,26.36
2023-01-27T08:04:25.061Z,26.57
2023-01-27T08:05:25.105Z,26.63
2023-01-27T08:06:24.974Z,26.90
2023-01-27T08:07:24.946Z,26.98
2023-01-27T08:08:24.907Z,27.12
2023-01-27T08:09:24.864Z,27.12
2023-01-27T08:10:25.118Z,27.12
2023-01-27T08:11:24.989Z,27.12
2023-01-27T08:12:24.749Z,27.32
2023-01-27T08:13:24.804Z,27.34
2023-01-27T08:14:24.691Z,27.34
2023-01-27T08:15:25.114Z,27.38
2023-01-27T08:16:24.691Z,27.42
2023-01-27T08:17:24.643Z,27.46
2023-01-27T08:18:24.558Z,27.49
2023-01-27T08:19:24.589Z,27.53
2023-01-27T08:20:24.484Z,27.61
2023-01-27T08:21:24.612Z,27.82
2023-01-27T08:22:24.399Z,27.83
2023-01-27T08:23:24.616Z,27.96
2023-01-27T08:24:24.435Z,28.05
2023-01-27T08:25:24.314Z,28.07
2023-01-27T08:26:24.249Z,28.17
2023-01-27T08:27:24.190Z,28.19
2023-01-27T08:28:24.585Z,28.35
2023-01-27T08:29:24.102Z,28.31
2023-01-27T08:30:24.128Z,28.33
2023-01-27T08:31:25.107Z,28.38
2023-01-27T08:32:23.969Z,28.47
2023-01-27T08:33:24.101Z,28.53
2023-01-27T08:34:23.858Z,28.70
2023-01-27T08:35:23.813Z,28.62
2023-01-27T08:36:23.803Z,28.45
2023-01-27T08:37:23.749Z,28.35
2023-01-27T08:38:25.093Z,28.19
2023-01-27T08:39:23.648Z,28.12
2023-01-27T08:40:23.596Z,28.18
2023-01-27T08:41:23.554Z,28.13
2023-01-27T08:42:23.509Z,28.13
2023-01-27T08:43:23.589Z,28.10
2023-01-27T08:44:23.512Z,28.09
2023-01-27T08:45:23.595Z,28.28
2023-01-27T08:46:23.334Z,28.19
2023-01-27T08:47:23.283Z,28.10
2023-01-27T08:48:23.235Z,28.25
2023-01-27T08:49:23.185Z,28.27
2023-01-27T08:50:23.593Z,28.36
2023-01-27T08:51:23.597Z,28.38
2023-01-27T08:52:23.100Z,28.43
2023-01-27T08:53:23.061Z,28.53
2023-01-27T08:54:23.982Z,28.61
2023-01-27T08:55:23.284Z,28.92
2023-01-27T08:56:23.097Z,28.94
2023-01-27T08:57:22.863Z,28.99
2023-01-27T08:58:22.828Z,29.03
2023-01-27T08:59:22.782Z,29.10
2023-01-27T09:00:22.784Z,29.12
2023-01-27T09:01:23.128Z,29.14
2023-01-27T09:02:22.681Z,29.35
2023-01-27T09:03:22.634Z,29.36
2023-01-27T09:04:22.695Z,29.64
2023-01-27T09:05:22.600Z,29.56
2023-01-27T09:06:22.528Z,29.61
2023-01-27T09:07:22.454Z,29.74
2023-01-27T09:08:22.417Z,29.84
2023-01-27T09:09:22.414Z,30.00
2023-01-27T09:10:22.647Z,30.08
2023-01-27T09:11:22.269Z,30.24
2023-01-27T09:12:22.229Z,30.18
2023-01-27T09:13:22.199Z,30.10
2023-01-27T09:14:22.156Z,30.53
2023-01-27T09:15:22.106Z,30.60
2023-01-27T09:16:22.123Z,30.69
2023-01-27T09:17:22.030Z,30.58
2023-01-27T09:18:21.992Z,30.94
2023-01-27T09:19:21.962Z,30.95
2023-01-27T09:20:21.942Z,31.17
2023-01-27T09:21:21.929Z,31.01
2023-01-27T09:22:21.891Z,31.05
2023-01-27T09:23:21.827Z,31.23
2023-01-27T09:24:21.892Z,31.23
2023-01-27T09:25:21.740Z,31.38
2023-01-27T09:26:21.667Z,31.35
2023-01-27T09:27:37.133Z,31.38
2023-01-27T09:28:21.627Z,31.43
2023-01-27T09:29:21.554Z,31.43
2023-01-27T09:30:21.510Z,31.45
2023-01-27T09:31:21.520Z,31.53
2023-01-27T09:32:21.609Z,31.59
2023-01-27T09:33:21.370Z,31.58
2023-01-27T09:34:21.337Z,31.64
2023-01-27T09:35:21.274Z,31.81
2023-01-27T09:36:21.228Z,31.78
2023-01-27T09:37:21.613Z,31.96
2023-01-27T09:38:21.136Z,32.07
2023-01-27T09:39:21.089Z,32.03
2023-01-27T09:40:21.078Z,32.02
2023-01-27T09:41:23.052Z,31.97
2023-01-27T09:42:21.112Z,21.10
2023-01-27T09:43:21.031Z,24.73
2023-01-27T09:44:20.902Z,25.97
2023-01-27T09:45:20.874Z,26.58
2023-01-27T09:46:20.910Z,28.04
2023-01-27T09:47:21.123Z,29.00
2023-01-27T09:48:20.758Z,28.35
2023-01-27T09:49:20.746Z,28.26
2023-01-27T09:50:20.701Z,28.33
2023-01-27T09:51:20.664Z,28.51
2023-01-27T09:52:20.627Z,28.75
2023-01-27T09:53:20.598Z,28.90
2023-01-27T09:54:20.547Z,29.15
2023-01-27T09:55:20.515Z,29.15
2023-01-27T09:56:20.477Z,29.14
2023-01-27T09:57:21.175Z,29.35
2023-01-27T09:58:20.418Z,29.40
2023-01-27T09:59:20.368Z,29.57
2023-01-27T10:00:20.300Z,29.77
2023-01-27T10:01:20.345Z,29.89
2023-01-27T10:02:20.225Z,29.74
2023-01-27T10:03:20.166Z,29.98
2023-01-27T10:04:20.181Z,29.91
2023-01-27T10:05:20.059Z,30.09
2023-01-27T10:06:20.071Z,30.23
2023-01-27T10:07:19.963Z,30.18
2023-01-27T10:08:19.916Z,30.30
2023-01-27T10:09:19.850Z,30.31
2023-01-27T10:10:19.820Z,30.26
2023-01-27T10:11:19.763Z,30.38
2023-01-27T10:12:20.134Z,30.31
2023-01-27T10:13:19.698Z,30.57
2023-01-27T10:14:19.619Z,30.38
2023-01-27T10:15:19.570Z,30.52
2023-01-27T10:16:19.633Z,30.74
2023-01-27T10:17:19.664Z,30.76
2023-01-27T10:18:19.476Z,30.92
2023-01-27T10:19:19.427Z,30.79
2023-01-27T10:20:19.374Z,30.63
2023-01-27T10:21:19.337Z,30.79
2023-01-27T10:22:19.654Z,30.83
2023-01-27T10:23:19.252Z,30.79
2023-01-27T10:24:19.266Z,30.71
2023-01-27T10:25:19.161Z,30.51
2023-01-27T10:26:19.113Z,30.38
2023-01-27T10:27:19.159Z,30.14
2023-01-27T10:28:19.028Z,30.02
2023-01-27T10:29:19.004Z,29.54
2023-01-27T10:30:18.936Z,29.33
2023-01-27T10:31:19.038Z,28.67
2023-01-27T10:32:19.164Z,24.65
2023-01-27T10:33:18.818Z,23.94
2023-01-27T10:34:19.165Z,22.53
2023-01-27T10:35:18.759Z,21.86
2023-01-27T10:36:18.736Z,22.70
2023-01-27T10:37:18.725Z,23.47
2023-01-27T10:38:18.693Z,25.04
2023-01-27T10:39:18.665Z,25.26
2023-01-27T10:40:19.249Z,25.58
2023-01-27T10:41:18.641Z,25.70
2023-01-27T10:42:18.606Z,25.91
2023-01-27T10:43:18.645Z,26.11
2023-01-27T10:44:18.510Z,26.18
2023-01-27T10:45:18.538Z,26.26
2023-01-27T10:46:18.523Z,26.36
2023-01-27T10:47:18.731Z,26.46
2023-01-27T10:48:18.660Z,26.45
2023-01-27T10:49:18.349Z,26.61
2023-01-27T10:50:19.479Z,26.84
2023-01-27T10:51:18.276Z,27.09
2023-01-27T10:52:18.255Z,27.14
2023-01-27T10:53:18.669Z,27.12
2023-01-27T10:54:18.197Z,27.29
2023-01-27T10:55:18.150Z,27.59
2023-01-27T10:56:18.182Z,27.52
2023-01-27T10:57:18.263Z,27.58
2023-01-27T10:58:18.235Z,27.66
2023-01-27T10:59:18.168Z,27.80
2023-01-27T11:01:21.509Z,28.14
2023-01-27T11:02:17.882Z,28.21
2023-01-27T11:03:17.760Z,28.32
2023-01-27T11:04:18.261Z,28.36
2023-01-27T11:05:18.146Z,28.71
2023-01-27T11:06:17.637Z,28.71
2023-01-27T11:07:17.593Z,28.79
2023-01-27T11:08:17.554Z,28.77
2023-01-27T11:09:17.521Z,28.95
2023-01-27T11:10:17.560Z,29.03
2023-01-27T11:11:17.856Z,29.06
2023-01-27T11:12:17.388Z,29.06
2023-01-27T11:13:17.646Z,29.47
2023-01-27T11:14:17.649Z,29.55
2023-01-27T11:15:17.239Z,29.73
2023-01-27T11:16:17.738Z,29.74
2023-01-27T11:17:17.162Z,29.85
2023-01-27T11:18:17.150Z,29.86
2023-01-27T11:19:17.024Z,29.98
2023-01-27T11:20:17.077Z,29.88
2023-01-27T11:21:16.934Z,30.29
2023-01-27T11:22:16.881Z,30.22
2023-01-27T11:23:17.229Z,30.20
2023-01-27T11:24:16.842Z,30.49
2023-01-27T11:25:16.741Z,30.67
2023-01-27T11:26:16.706Z,30.69
2023-01-27T11:27:17.164Z,30.95
2023-01-27T11:28:16.611Z,30.77
2023-01-27T11:29:16.652Z,21.83
2023-01-27T11:30:17.165Z,17.82
2023-01-27T11:31:16.719Z,21.69
2023-01-27T11:32:16.578Z,22.76
2023-01-27T11:33:16.578Z,24.01
2023-01-27T11:34:16.736Z,24.59
2023-01-27T11:35:16.511Z,24.91
2023-01-27T11:36:16.488Z,24.72
2023-01-27T11:37:16.479Z,24.91
2023-01-27T11:38:16.489Z,25.39
2023-01-27T11:39:16.670Z,25.64
2023-01-27T11:40:16.446Z,25.70
2023-01-27T11:41:16.367Z,25.78
2023-01-27T11:42:16.369Z,26.07
2023-01-27T11:43:16.341Z,26.03
2023-01-27T11:44:16.660Z,26.14
2023-01-27T11:45:16.266Z,26.26
2023-01-27T11:46:16.299Z,26.17
2023-01-27T11:47:16.177Z,25.94
2023-01-27T11:48:16.158Z,25.67
2023-01-27T11:49:16.283Z,25.46
2023-01-27T11:50:16.216Z,25.27
2023-01-27T11:51:16.034Z,25.06
2023-01-27T11:52:16.162Z,25.00
2023-01-27T11:53:15.969Z,24.84
2023-01-27T11:54:16.165Z,24.51
2023-01-27T11:55:15.934Z,24.63
2023-01-27T11:56:16.071Z,25.06
2023-01-27T11:57:15.822Z,25.12
2023-01-27T11:58:15.778Z,25.63
2023-01-27T11:59:16.166Z,26.84
2023-01-27T12:00:15.971Z,28.03
2023-01-27T12:01:15.654Z,28.11
2023-01-27T12:02:15.614Z,28.29
2023-01-27T12:03:15.667Z,28.03
2023-01-27T12:04:16.079Z,27.65
2023-01-27T12:05:15.506Z,27.83
2023-01-27T12:06:15.438Z,27.88
2023-01-27T12:07:15.405Z,27.77
2023-01-27T12:08:15.396Z,27.77
2023-01-27T12:09:15.671Z,27.73
2023-01-27T12:10:17.025Z,27.59
2023-01-27T12:11:15.256Z,27.56
2023-01-27T12:12:15.219Z,27.40
2023-01-27T12:13:15.184Z,27.27
2023-01-27T12:14:15.185Z,27.23
2023-01-27T12:15:15.105Z,27.11
2023-01-27T12:16:15.231Z,26.95
2023-01-27T12:17:15.034Z,26.91
2023-01-27T12:18:15.006Z,26.84
2023-01-27T12:19:15.237Z,26.75
2023-01-27T12:20:15.348Z,26.68
2023-01-27T12:21:14.916Z,26.65
2023-01-27T12:22:14.902Z,26.54
2023-01-27T12:23:14.915Z,26.49
2023-01-27T12:24:15.439Z,26.43
2023-01-27T12:25:14.738Z,26.35
2023-01-27T12:26:14.769Z,26.28
2023-01-27T12:27:14.716Z,26.24
2023-01-27T12:28:14.591Z,26.20
2023-01-27T12:29:14.673Z,26.14
2023-01-27T12:30:15.147Z,26.11
2023-01-27T12:31:14.588Z,26.08
2023-01-27T12:32:14.673Z,26.06
2023-01-27T12:33:14.450Z,25.96
2023-01-27T12:34:14.433Z,25.96
2023-01-27T12:35:14.290Z,25.88
2023-01-27T12:36:14.767Z,25.88
2023-01-27T12:37:14.256Z,25.84
2023-01-27T12:38:14.841Z,25.83
2023-01-27T12:39:14.142Z,25.80
2023-01-27T12:40:14.503Z,25.70
2023-01-27T12:41:14.050Z,25.76
2023-01-27T12:42:14.178Z,25.66
2023-01-27T12:43:14.002Z,25.64
2023-01-27T12:44:13.889Z,25.66
2023-01-27T12:45:14.111Z,25.63
2023-01-27T12:46:13.859Z,25.60
2023-01-27T12:47:14.452Z,25.60
2023-01-27T12:48:13.721Z,25.54
2023-01-27T12:49:13.659Z,25.58
2023-01-27T12:50:13.995Z,25.53
2023-01-27T12:51:13.702Z,25.56
2023-01-27T12:52:14.182Z,25.55
2023-01-27T12:53:13.535Z,25.51
2023-01-27T12:54:13.461Z,25.48
2023-01-27T12:55:13.427Z,25.47
2023-01-27T12:56:13.683Z,25.49
2023-01-27T12:57:13.351Z,25.46
2023-01-27T12:58:13.315Z,25.45
2023-01-27T12:59:13.329Z,25.45
2023-01-27T13:00:13.651Z,25.41
2023-01-27T13:01:13.241Z,25.41
2023-01-27T13:02:13.710Z,25.42
2023-01-27T13:03:13.527Z,25.38
2023-01-27T13:04:13.766Z,25.37
2023-01-27T13:05:13.529Z,25.32
2023-01-27T13:06:13.658Z,25.38
2023-01-27T13:07:13.245Z,25.38
2023-01-27T13:08:12.885Z,25.35
2023-01-27T13:09:12.867Z,25.35
2023-01-27T13:10:13.451Z,25.38
2023-01-27T13:11:12.760Z,25.32
2023-01-27T13:12:12.726Z,25.34
2023-01-27T13:13:12.687Z,25.34
2023-01-27T13:14:12.643Z,25.31
2023-01-27T13:15:12.725Z,25.31
2023-01-27T13:16:12.620Z,25.35
2023-01-27T13:17:12.521Z,25.27
2023-01-27T13:18:12.493Z,25.30
2023-01-27T13:19:12.456Z,25.31
2023-01-27T13:20:12.968Z,25.27
2023-01-27T13:21:12.381Z,25.24
2023-01-27T13:22:12.322Z,25.27
2023-01-27T13:23:12.693Z,25.24
2023-01-27T13:24:12.305Z,25.27
2023-01-27T13:25:12.542Z,25.29
2023-01-27T13:26:12.183Z,25.29
2023-01-27T13:27:12.139Z,25.29
2023-01-27T13:28:12.086Z,25.22
2023-01-27T13:29:12.068Z,25.27
2023-01-27T13:30:12.422Z,25.25
2023-01-27T13:31:12.068Z,25.25
2023-01-27T13:32:11.927Z,25.25
2023-01-27T13:33:11.891Z,25.24
2023-01-27T13:34:11.930Z,25.29
2023-01-27T13:35:11.820Z,25.26
2023-01-27T13:36:11.787Z,25.24
2023-01-27T13:37:11.781Z,25.24
2023-01-27T13:38:11.711Z,25.20
2023-01-27T13:39:11.672Z,25.19
2023-01-27T13:40:11.954Z,25.19
2023-01-27T13:41:11.618Z,25.19
2023-01-27T13:42:11.809Z,25.18
2023-01-27T13:43:11.601Z,25.18
2023-01-27T13:44:11.451Z,25.22
2023-01-27T13:45:11.404Z,25.15
2023-01-27T13:46:11.404Z,25.16
2023-01-27T13:47:11.320Z,25.19